Time;durP1;ratioP1;P1;durP2;ratioP2;P2;SDS_P1;SDS_P2;PMS_P1;PMS_P2;Temp;Humidity;BMP_temperature;BMP_pressure;BME280_temperature;BME280_humidity;BME280_pressure;Samples;Min_cycle;Max_cycle;Signal;HPM_P1;HPM_P2
2022/04/08 00:01:44;;;;;;;6.05;1.40;;;5.60;99.90;;;;;;4943552;28;20039;-59
2022/04/08 00:04:10;;;;;;;7.88;1.80;;;5.60;99.90;;;;;;4927262;28;20117;-61
2022/04/08 00:06:36;;;;;;;11.88;1.42;;;5.60;99.90;;;;;;4960303;28;20058;-60
2022/04/08 00:09:02;;;;;;;8.05;1.67;;;5.60;99.90;;;;;;4945192;28;20051;-60
2022/04/08 00:11:28;;;;;;;7.82;1.38;;;5.50;99.90;;;;;;4964333;28;20058;-60
2022/04/08 00:13:53;;;;;;;10.80;1.65;;;5.50;99.90;;;;;;4948924;28;20054;-61
2022/04/08 00:16:20;;;;;;;5.50;1.55;;;5.50;99.90;;;;;;4929365;28;20070;-59
2022/04/08 00:18:46;;;;;;;2.95;0.70;;;5.50;99.90;;;;;;4956810;28;20697;-59
2022/04/08 00:21:13;;;;;;;1.90;0.60;;;5.50;99.90;;;;;;4946844;28;20042;-60
2022/04/08 00:23:39;;;;;;;1.85;0.80;;;5.40;99.90;;;;;;4961431;28;20102;-60
2022/04/08 00:26:05;;;;;;;3.53;0.82;;;5.20;99.90;;;;;;4960273;28;20047;-60
2022/04/08 00:28:31;;;;;;;5.82;1.20;;;5.00;99.90;;;;;;4934880;28;20124;-60
2022/04/08 00:30:57;;;;;;;5.40;1.13;;;4.90;99.90;;;;;;4935465;28;20060;-60
2022/04/08 00:33:23;;;;;;;8.23;1.30;;;4.90;99.90;;;;;;4919808;28;20075;-60
2022/04/08 00:35:49;;;;;;;6.13;1.23;;;4.80;99.90;;;;;;4948837;28;20126;-60
2022/04/08 00:38:14;;;;;;;5.63;1.30;;;4.80;99.90;;;;;;4935207;28;20074;-59
2022/04/08 00:40:40;;;;;;;7.70;1.40;;;4.80;99.90;;;;;;4940089;28;20051;-59
2022/04/08 00:43:34;;;;;;;8.25;1.70;;;4.80;99.90;;;;;;4964000;28;20046;-59
2022/04/08 00:46:00;;;;;;;7.70;1.25;;;4.80;99.90;;;;;;4938111;28;20532;-59
2022/04/08 00:48:26;;;;;;;7.82;1.70;;;4.80;99.90;;;;;;4945101;28;20062;-59
2022/04/08 00:50:52;;;;;;;10.48;1.85;;;4.80;99.90;;;;;;4943280;28;20047;-60
2022/04/08 00:53:19;;;;;;;11.07;1.98;;;4.80;99.90;;;;;;4926033;28;20539;-60
2022/04/08 00:55:45;;;;;;;14.05;2.20;;;4.80;99.90;;;;;;4911505;28;20073;-60
2022/04/08 00:58:11;;;;;;;11.63;2.60;;;4.70;99.90;;;;;;4933200;28;20053;-59
2022/04/08 01:00:38;;;;;;;11.70;2.10;;;4.70;99.90;;;;;;4950397;28;20050;-60
2022/04/08 01:03:05;;;;;;;22.30;2.30;;;4.70;99.90;;;;;;4946268;28;20057;-59
2022/04/08 01:05:32;;;;;;;19.23;2.78;;;4.60;99.90;;;;;;4949153;28;20125;-60
2022/04/08 01:07:58;;;;;;;12.00;2.33;;;4.50;99.90;;;;;;4957723;28;20062;-60
2022/04/08 01:10:25;;;;;;;11.57;2.45;;;4.50;99.90;;;;;;4924323;28;20061;-60
2022/04/08 01:12:51;;;;;;;17.80;2.45;;;4.50;99.90;;;;;;4933909;28;20063;-60
2022/04/08 01:15:18;;;;;;;12.45;2.33;;;4.40;99.90;;;;;;4943862;28;20047;-60
2022/04/08 01:17:45;;;;;;;12.32;1.95;;;4.40;99.90;;;;;;4926496;28;20057;-60
2022/04/08 01:20:11;;;;;;;11.30;2.50;;;4.40;99.90;;;;;;4926547;28;20411;-60
2022/04/08 01:22:36;;;;;;;17.42;2.75;;;4.40;99.90;;;;;;4958122;28;20047;-60
2022/04/08 01:25:07;;;;;;;12.80;2.03;;;4.40;99.90;;;;;;4924269;28;20543;-59
2022/04/08 01:27:35;;;;;;;17.98;2.95;;;4.40;99.90;;;;;;4961045;28;20059;-60
2022/04/08 01:30:02;;;;;;;10.80;2.00;;;4.40;99.90;;;;;;4944902;28;20042;-61
2022/04/08 01:32:27;;;;;;;7.90;1.77;;;4.40;99.90;;;;;;4944279;28;20694;-59
2022/04/08 01:34:53;;;;;;;11.50;2.47;;;4.40;99.90;;;;;;4945904;28;20047;-60
2022/04/08 01:37:20;;;;;;;9.63;2.08;;;4.40;99.90;;;;;;4930404;28;20118;-60
2022/04/08 01:39:45;;;;;;;10.57;1.85;;;4.40;99.90;;;;;;4930700;28;20114;-60
2022/04/08 01:42:11;;;;;;;13.93;2.00;;;4.40;99.90;;;;;;4956045;28;20492;-59
2022/04/08 01:44:38;;;;;;;7.07;1.90;;;4.40;99.90;;;;;;4934569;28;20061;-59
2022/04/08 01:47:05;;;;;;;9.45;2.13;;;4.40;99.90;;;;;;4946033;28;20058;-59
2022/04/08 01:49:31;;;;;;;11.95;1.88;;;4.40;99.90;;;;;;4931011;28;20129;-59
2022/04/08 01:51:57;;;;;;;11.00;2.00;;;4.30;99.90;;;;;;4942728;28;20097;-60
2022/04/08 01:54:23;;;;;;;7.28;2.03;;;4.40;99.90;;;;;;4925901;28;22178;-60
2022/04/08 01:56:49;;;;;;;11.00;1.60;;;4.40;99.90;;;;;;4961038;28;20074;-62
2022/04/08 01:59:15;;;;;;;10.98;1.80;;;4.40;99.90;;;;;;4926267;28;20074;-60
2022/04/08 02:01:41;;;;;;;10.13;1.70;;;4.40;99.90;;;;;;4932967;28;20050;-59
2022/04/08 02:04:07;;;;;;;15.32;2.22;;;4.40;99.90;;;;;;4946394;28;20880;-59
2022/04/08 02:06:40;;;;;;;10.30;1.92;;;4.50;99.90;;;;;;4937326;28;20191;-59
2022/04/08 02:09:07;;;;;;;9.90;1.83;;;4.40;99.90;;;;;;4944552;28;21330;-60
2022/04/08 02:11:34;;;;;;;10.90;2.00;;;4.40;99.90;;;;;;4911147;28;20673;-60
2022/04/08 02:14:00;;;;;;;6.53;1.52;;;4.40;99.90;;;;;;4931497;28;20146;-59
2022/04/08 02:16:26;;;;;;;12.20;2.25;;;4.40;99.90;;;;;;4925622;28;20398;-60
2022/04/08 02:18:51;;;;;;;17.55;2.60;;;4.30;99.90;;;;;;4956497;28;20051;-60
2022/04/08 02:21:19;;;;;;;16.25;2.55;;;4.40;99.90;;;;;;4957082;28;20154;-60
2022/04/08 02:23:55;;;;;;;14.57;2.10;;;4.40;99.90;;;;;;4927316;28;20047;-60
2022/04/08 02:26:20;;;;;;;20.10;2.50;;;4.40;99.90;;;;;;4926483;28;20049;-61
2022/04/08 02:28:47;;;;;;;11.68;2.10;;;4.40;99.90;;;;;;4944893;28;24435;-60
2022/04/08 02:31:13;;;;;;;13.75;2.28;;;4.40;99.90;;;;;;4932741;28;20575;-60
2022/04/08 02:33:39;;;;;;;10.27;1.95;;;4.40;99.90;;;;;;4957950;28;20838;-60
2022/04/08 02:36:06;;;;;;;11.55;2.70;;;4.40;99.90;;;;;;4926372;28;20074;-60
2022/04/08 02:38:32;;;;;;;13.48;3.10;;;4.50;99.90;;;;;;4928267;28;20053;-59
2022/04/08 02:40:58;;;;;;;14.02;2.10;;;4.50;99.90;;;;;;4943315;28;20078;-60
2022/04/08 02:43:24;;;;;;;10.48;2.20;;;4.50;99.90;;;;;;4939581;28;20055;-60
2022/04/08 02:45:50;;;;;;;10.45;2.50;;;4.40;99.90;;;;;;4945306;28;20069;-60
2022/04/08 02:48:18;;;;;;;12.63;2.05;;;4.40;99.90;;;;;;4913765;28;20544;-60
2022/04/08 02:50:44;;;;;;;13.90;2.22;;;4.40;99.90;;;;;;4927352;28;20121;-60
2022/04/08 02:53:10;;;;;;;14.25;2.10;;;4.30;99.90;;;;;;4941840;28;20054;-59
2022/04/08 02:55:36;;;;;;;9.38;1.95;;;4.30;99.90;;;;;;4939161;28;20047;-59
2022/04/08 02:58:02;;;;;;;8.88;2.20;;;4.10;99.90;;;;;;4915764;28;20517;-61
2022/04/08 03:00:28;;;;;;;10.18;2.08;;;4.00;99.90;;;;;;4933149;28;21669;-59
2022/04/08 03:02:54;;;;;;;10.40;2.35;;;4.00;99.90;;;;;;4945854;28;20050;-60
2022/04/08 03:05:20;;;;;;;9.05;2.17;;;4.00;99.90;;;;;;4940803;28;20063;-60
2022/04/08 03:07:46;;;;;;;6.53;1.58;;;3.90;99.90;;;;;;4930763;28;20062;-60
2022/04/08 03:10:12;;;;;;;7.15;1.67;;;3.90;99.90;;;;;;4910990;28;20789;-60
2022/04/08 03:12:38;;;;;;;11.30;1.60;;;3.90;99.90;;;;;;4936772;28;20062;-59
2022/04/08 03:15:05;;;;;;;9.40;1.98;;;3.80;99.90;;;;;;4921454;28;20137;-59
2022/04/08 03:17:30;;;;;;;8.32;1.70;;;3.80;99.90;;;;;;4922910;28;20047;-60
2022/04/08 03:19:57;;;;;;;5.18;2.10;;;3.80;99.90;;;;;;4923326;28;21249;-60
2022/04/08 03:22:24;;;;;;;9.60;2.10;;;3.80;99.90;;;;;;4928687;28;20127;-58
2022/04/08 03:24:51;;;;;;;4.32;1.40;;;3.80;99.90;;;;;;4912095;28;20054;-61
2022/04/08 03:27:17;;;;;;;9.07;2.13;;;3.80;99.90;;;;;;4941169;28;20990;-61
2022/04/08 03:29:44;;;;;;;8.18;1.83;;;3.80;99.90;;;;;;4923166;28;20051;-58
2022/04/08 03:32:10;;;;;;;6.32;1.55;;;3.80;99.90;;;;;;4954777;28;20171;-60
2022/04/08 03:34:37;;;;;;;5.80;1.60;;;3.90;99.90;;;;;;4922941;28;20062;-60
2022/04/08 03:37:03;;;;;;;10.80;1.60;;;3.90;99.90;;;;;;4923162;28;20053;-60
2022/04/08 03:39:29;;;;;;;6.20;1.42;;;3.90;99.90;;;;;;4925055;28;20119;-60
2022/04/08 03:41:55;;;;;;;11.15;1.75;;;3.90;99.90;;;;;;4908565;28;20090;-60
2022/04/08 03:44:21;;;;;;;8.77;2.13;;;3.90;99.90;;;;;;4921331;28;20896;-59
2022/04/08 03:46:46;;;;;;;12.43;2.35;;;3.90;99.90;;;;;;4936685;28;20141;-60
2022/04/08 03:49:16;;;;;;;10.80;2.20;;;3.90;99.90;;;;;;4925887;28;20576;-59
2022/04/08 03:51:46;;;;;;;10.32;1.77;;;3.80;99.90;;;;;;4921095;28;20047;-61
2022/04/08 03:54:13;;;;;;;10.07;1.92;;;3.90;99.90;;;;;;4913045;28;20055;-59
2022/04/08 03:56:42;;;;;;;10.40;1.95;;;3.90;99.90;;;;;;4925599;28;20055;-60
2022/04/08 03:59:08;;;;;;;7.03;1.95;;;3.90;99.90;;;;;;4922947;28;20048;-61
2022/04/08 04:01:34;;;;;;;7.32;1.50;;;4.00;99.90;;;;;;4953158;28;20051;-60
2022/04/08 04:04:00;;;;;;;3.45;1.42;;;4.00;99.90;;;;;;4926163;28;20087;-60
2022/04/08 04:06:26;;;;;;;4.00;1.30;;;4.10;99.90;;;;;;4923500;28;20044;-60
2022/04/08 04:08:52;;;;;;;5.53;1.50;;;3.90;99.90;;;;;;4943171;28;20731;-60
2022/04/08 04:11:18;;;;;;;4.40;1.50;;;3.80;99.90;;;;;;4941301;28;20042;-60
2022/04/08 04:13:44;;;;;;;4.75;1.40;;;3.70;99.90;;;;;;4928398;28;20054;-60
2022/04/08 04:16:10;;;;;;;4.60;1.35;;;3.70;99.90;;;;;;4957592;28;20057;-60
2022/04/08 04:18:37;;;;;;;8.10;2.05;;;3.60;99.90;;;;;;4957470;28;20427;-59
2022/04/08 04:21:03;;;;;;;8.32;1.65;;;3.60;99.90;;;;;;4927752;28;20138;-60
2022/04/08 04:23:31;;;;;;;6.10;1.92;;;3.60;99.90;;;;;;4957035;28;20047;-60
2022/04/08 04:25:57;;;;;;;6.20;1.88;;;3.50;99.90;;;;;;4958353;28;20077;-60
2022/04/08 04:28:23;;;;;;;6.40;1.73;;;3.50;99.90;;;;;;4963019;28;20055;-60
2022/04/08 04:30:49;;;;;;;6.15;1.67;;;3.50;99.90;;;;;;4947085;28;20131;-60
2022/04/08 04:33:15;;;;;;;10.70;1.60;;;3.50;99.90;;;;;;4929026;28;20536;-60
2022/04/08 04:35:41;;;;;;;9.50;1.60;;;3.40;99.90;;;;;;4921533;28;21173;-60
2022/04/08 04:38:07;;;;;;;4.07;1.70;;;3.40;99.90;;;;;;4945654;28;20046;-60
2022/04/08 04:40:32;;;;;;;6.18;1.80;;;3.40;99.90;;;;;;4926055;28;20042;-60
2022/04/08 04:42:58;;;;;;;8.85;1.60;;;3.40;99.90;;;;;;4944196;28;20054;-60
2022/04/08 04:45:25;;;;;;;4.93;1.58;;;3.40;99.90;;;;;;4941600;28;20141;-60
2022/04/08 04:47:51;;;;;;;5.28;1.60;;;3.30;99.90;;;;;;4932628;28;20371;-60
2022/04/08 04:50:16;;;;;;;7.13;1.70;;;3.40;99.90;;;;;;4926994;28;21117;-61
2022/04/08 04:52:42;;;;;;;4.43;1.50;;;3.40;99.90;;;;;;4944806;28;20055;-59
2022/04/08 04:55:08;;;;;;;6.22;1.65;;;3.40;99.90;;;;;;4959759;28;20055;-60
2022/04/08 04:57:35;;;;;;;6.47;1.42;;;3.40;99.90;;;;;;4923662;28;20050;-60
2022/04/08 05:00:02;;;;;;;3.47;1.45;;;3.50;99.90;;;;;;4945432;28;20140;-60
2022/04/08 05:02:28;;;;;;;4.18;1.80;;;3.50;99.90;;;;;;4942831;28;20079;-61
2022/04/08 05:04:54;;;;;;;7.50;1.90;;;3.50;99.90;;;;;;4942230;28;20043;-61
2022/04/08 05:07:20;;;;;;;5.63;1.65;;;3.50;99.90;;;;;;4938881;28;20062;-61
2022/04/08 05:09:45;;;;;;;7.50;1.80;;;3.50;99.90;;;;;;4923791;28;20348;-59
2022/04/08 05:12:11;;;;;;;3.85;1.38;;;3.50;99.90;;;;;;4941344;28;20131;-61
2022/04/08 05:14:38;;;;;;;3.63;1.40;;;3.50;99.90;;;;;;4929579;28;20461;-60
2022/04/08 05:17:04;;;;;;;4.28;1.40;;;3.50;99.90;;;;;;4936394;28;20058;-60
2022/04/08 05:19:30;;;;;;;3.28;1.75;;;3.50;99.90;;;;;;4940407;28;20047;-60
2022/04/08 05:21:56;;;;;;;6.93;1.73;;;3.50;99.90;;;;;;4923867;28;20046;-60
2022/04/08 05:24:22;;;;;;;6.90;1.73;;;3.40;99.90;;;;;;4956728;28;20976;-60
2022/04/08 05:26:47;;;;;;;7.65;1.50;;;3.40;99.90;;;;;;4941164;28;22082;-60
2022/04/08 05:29:13;;;;;;;6.28;1.45;;;3.40;99.90;;;;;;4943979;28;20508;-60
2022/04/08 05:31:39;;;;;;;5.45;1.60;;;3.40;99.90;;;;;;4922627;28;20057;-60
2022/04/08 05:34:05;;;;;;;3.03;1.50;;;3.40;99.90;;;;;;4925871;28;20051;-59
2022/04/08 05:36:31;;;;;;;7.40;1.60;;;3.40;99.90;;;;;;4946128;28;20046;-59
2022/04/08 05:38:57;;;;;;;5.45;1.50;;;3.40;99.90;;;;;;4947672;28;20136;-61
2022/04/08 05:41:23;;;;;;;5.32;1.70;;;3.40;99.90;;;;;;4958463;28;20051;-60
2022/04/08 05:43:49;;;;;;;3.25;1.40;;;3.40;99.90;;;;;;4947040;28;20061;-60
2022/04/08 05:46:15;;;;;;;6.07;1.88;;;3.40;99.90;;;;;;4943163;28;20054;-60
2022/04/08 05:48:41;;;;;;;3.88;1.58;;;3.40;99.90;;;;;;4958941;28;20513;-60
2022/04/08 05:51:07;;;;;;;4.68;2.08;;;3.50;99.90;;;;;;4946281;28;20137;-60
2022/04/08 05:53:33;;;;;;;5.70;1.77;;;3.50;99.90;;;;;;4913461;28;20412;-61
2022/04/08 05:56:03;;;;;;;7.55;1.90;;;3.60;99.90;;;;;;4942774;28;20887;-60
2022/04/08 05:58:30;;;;;;;3.05;1.70;;;3.50;99.90;;;;;;4974119;28;20062;-59
2022/04/08 06:00:56;;;;;;;4.70;1.58;;;3.50;99.90;;;;;;4946256;28;20081;-60
2022/04/08 06:03:22;;;;;;;6.05;1.80;;;3.50;99.90;;;;;;4963696;28;20146;-61
2022/04/08 06:05:47;;;;;;;6.22;2.00;;;3.60;99.90;;;;;;4940304;28;20129;-61
2022/04/08 06:08:13;;;;;;;6.70;1.95;;;3.60;99.90;;;;;;4946000;28;20059;-61
2022/04/08 06:10:39;;;;;;;6.15;1.92;;;3.60;99.90;;;;;;4943794;28;20046;-60
2022/04/08 06:13:05;;;;;;;6.05;1.80;;;3.70;99.90;;;;;;4938735;28;20057;-60
2022/04/08 06:15:31;;;;;;;5.47;1.70;;;3.70;99.90;;;;;;4939299;28;20051;-61
2022/04/08 06:17:58;;;;;;;9.27;1.80;;;3.70;99.90;;;;;;4962090;28;20047;-60
2022/04/08 06:20:24;;;;;;;4.53;1.83;;;3.70;99.90;;;;;;4949447;28;20043;-60
2022/04/08 06:22:52;;;;;;;6.45;1.60;;;3.80;99.90;;;;;;4931913;28;20050;-61
2022/04/08 06:25:20;;;;;;;4.70;1.70;;;3.80;99.90;;;;;;4963190;28;20047;-59
2022/04/08 06:27:58;;;;;;;7.85;2.20;;;3.80;99.90;;;;;;4950580;28;20050;-61
2022/04/08 06:30:25;;;;;;;8.65;2.08;;;3.80;99.90;;;;;;4946655;28;20050;-60
2022/04/08 06:32:51;;;;;;;5.28;2.00;;;3.80;99.90;;;;;;4932491;28;20199;-60
2022/04/08 06:35:16;;;;;;;5.53;2.10;;;3.90;99.90;;;;;;4961644;28;20138;-60
2022/04/08 06:37:42;;;;;;;10.15;2.20;;;3.90;99.90;;;;;;4948208;28;20535;-60
2022/04/08 06:40:09;;;;;;;10.25;2.28;;;4.00;99.90;;;;;;4943561;28;20058;-60
2022/04/08 06:42:36;;;;;;;6.85;2.08;;;4.10;99.90;;;;;;4928179;28;20043;-60
2022/04/08 06:45:03;;;;;;;6.57;2.30;;;4.10;99.90;;;;;;4912660;28;20125;-60
2022/04/08 06:47:29;;;;;;;8.77;2.20;;;4.20;99.90;;;;;;4924722;28;20079;-60
2022/04/08 06:49:55;;;;;;;8.70;2.30;;;4.20;99.90;;;;;;4974184;28;20051;-60
2022/04/08 06:52:21;;;;;;;13.40;2.90;;;4.30;99.90;;;;;;4970343;28;20971;-60
2022/04/08 06:54:47;;;;;;;9.45;2.35;;;4.40;99.90;;;;;;4926049;28;20117;-61
2022/04/08 06:57:13;;;;;;;7.60;2.50;;;4.40;99.90;;;;;;4927644;28;20384;-60
2022/04/08 06:59:40;;;;;;;12.40;2.53;;;4.50;99.90;;;;;;4931163;28;20046;-62
2022/04/08 07:02:06;;;;;;;9.38;2.40;;;4.50;99.90;;;;;;4954438;28;20575;-61
2022/04/08 07:04:32;;;;;;;10.35;2.60;;;4.60;99.90;;;;;;4940647;28;20054;-59
2022/04/08 07:06:58;;;;;;;11.13;3.83;;;4.70;99.90;;;;;;4920605;28;20539;-61
2022/04/08 07:09:24;;;;;;;10.50;2.97;;;4.70;99.90;;;;;;4924499;28;20531;-61
2022/04/08 07:11:50;;;;;;;9.35;2.45;;;4.80;99.90;;;;;;4957218;28;21234;-61
2022/04/08 07:14:16;;;;;;;10.10;2.35;;;4.90;99.90;;;;;;4959343;28;20086;-60
2022/04/08 07:16:43;;;;;;;11.73;3.10;;;5.00;99.90;;;;;;4938589;28;20947;-61
2022/04/08 07:19:13;;;;;;;11.95;2.67;;;5.00;99.90;;;;;;4928503;28;20785;-61
2022/04/08 07:21:39;;;;;;;9.15;2.50;;;5.10;99.90;;;;;;4928464;28;20828;-61
2022/04/08 07:24:05;;;;;;;15.07;2.90;;;5.20;99.90;;;;;;4949874;28;20113;-62
2022/04/08 07:26:31;;;;;;;17.20;2.83;;;5.30;99.90;;;;;;4973411;28;20047;-61
2022/04/08 07:28:57;;;;;;;7.88;2.60;;;5.40;99.90;;;;;;4941237;28;20133;-61
2022/04/08 07:31:23;;;;;;;10.70;2.65;;;5.50;99.90;;;;;;4925543;28;20047;-62
2022/04/08 07:33:49;;;;;;;16.95;2.78;;;5.60;99.90;;;;;;4911032;28;20138;-61
2022/04/08 07:36:15;;;;;;;12.75;2.83;;;5.80;99.90;;;;;;4919636;28;20046;-61
2022/04/08 07:38:41;;;;;;;10.77;2.53;;;5.80;99.90;;;;;;4940500;28;20061;-61
2022/04/08 07:41:07;;;;;;;4.45;2.17;;;6.00;99.90;;;;;;4956805;28;20054;-60
2022/04/08 07:43:32;;;;;;;6.22;2.15;;;6.00;99.90;;;;;;4957413;28;20093;-61
2022/04/08 07:45:58;;;;;;;4.43;1.38;;;6.00;99.90;;;;;;4945770;28;20046;-61
2022/04/08 07:48:24;;;;;;;4.03;1.35;;;6.10;99.90;;;;;;4929311;28;20073;-61
2022/04/08 07:50:50;;;;;;;3.53;1.58;;;6.10;99.90;;;;;;4928258;28;20042;-61
2022/04/08 07:53:16;;;;;;;4.38;1.60;;;6.20;99.90;;;;;;4946895;28;20047;-61
2022/04/08 07:55:42;;;;;;;5.30;1.70;;;6.20;99.90;;;;;;4927241;28;20576;-61
2022/04/08 07:58:08;;;;;;;4.82;1.65;;;6.30;99.90;;;;;;4959798;28;20106;-61
2022/04/08 08:00:34;;;;;;;8.05;2.30;;;6.30;99.90;;;;;;4935575;28;20043;-61
2022/04/08 08:03:00;;;;;;;8.55;2.00;;;6.50;99.90;;;;;;4931210;28;20060;-61
2022/04/08 08:05:27;;;;;;;5.80;2.00;;;6.60;99.90;;;;;;4955524;28;20102;-61
2022/04/08 08:07:55;;;;;;;6.15;1.70;;;6.60;99.90;;;;;;4939790;28;20054;-61
2022/04/08 08:10:23;;;;;;;6.28;1.98;;;6.80;99.90;;;;;;4941805;28;20054;-61
2022/04/08 08:12:49;;;;;;;5.40;1.73;;;6.90;99.90;;;;;;4910784;28;20081;-62
2022/04/08 08:15:16;;;;;;;7.47;1.77;;;7.00;99.90;;;;;;4956139;28;20081;-62
2022/04/08 08:17:42;;;;;;;8.98;2.03;;;7.10;99.90;;;;;;4957540;28;20489;-61
2022/04/08 08:20:10;;;;;;;8.90;1.98;;;7.20;99.90;;;;;;4924314;28;20050;-61
2022/04/08 08:22:36;;;;;;;8.32;1.70;;;7.30;99.90;;;;;;4926866;28;20706;-61
2022/04/08 08:25:03;;;;;;;8.82;2.03;;;7.50;99.90;;;;;;4958784;28;20598;-60
2022/04/08 08:27:36;;;;;;;8.15;1.70;;;7.50;99.90;;;;;;4920866;28;20126;-61
2022/04/08 08:30:03;;;;;;;9.10;1.52;;;7.70;99.90;;;;;;4962170;28;20053;-62
2022/04/08 08:32:29;;;;;;;10.98;1.50;;;7.70;99.90;;;;;;4956438;28;21301;-62
2022/04/08 08:34:55;;;;;;;5.55;1.50;;;7.70;99.90;;;;;;4947269;28;20051;-61
2022/04/08 08:37:21;;;;;;;9.45;1.77;;;7.60;99.90;;;;;;4958677;28;20562;-61
2022/04/08 08:39:46;;;;;;;6.80;1.52;;;7.60;99.90;;;;;;4939803;28;20322;-62
2022/04/08 08:42:13;;;;;;;7.47;1.70;;;7.70;99.90;;;;;;4959086;28;20125;-60
2022/04/08 08:44:40;;;;;;;7.93;1.90;;;7.90;99.90;;;;;;4961829;28;20054;-61
2022/04/08 08:47:12;;;;;;;5.05;1.60;;;7.90;99.90;;;;;;4917542;28;20492;-60
2022/04/08 08:49:42;;;;;;;10.38;1.90;;;7.80;99.90;;;;;;4961738;28;20070;-60
2022/04/08 08:52:09;;;;;;;7.40;1.70;;;7.90;99.90;;;;;;4945633;28;20057;-62
2022/04/08 08:54:35;;;;;;;7.22;1.50;;;8.00;99.90;;;;;;4959698;28;20520;-62
2022/04/08 08:57:02;;;;;;;10.82;2.22;;;8.20;99.90;;;;;;4947940;28;20053;-62
2022/04/08 08:59:29;;;;;;;7.10;1.60;;;8.40;99.90;;;;;;4954744;28;20054;-61
2022/04/08 09:02:02;;;;;;;5.55;1.58;;;8.50;99.90;;;;;;4960404;28;20041;-61
2022/04/08 09:04:29;;;;;;;8.52;1.77;;;8.50;99.90;;;;;;4960069;28;20551;-60
2022/04/08 09:06:55;;;;;;;3.40;1.30;;;8.40;99.90;;;;;;4925453;28;20393;-61
2022/04/08 09:09:31;;;;;;;3.20;1.50;;;8.10;99.90;;;;;;4925077;28;20061;-62
2022/04/08 09:12:14;;;;;;;6.75;1.83;;;7.90;99.90;;;;;;4944945;28;20452;-62
2022/04/08 09:14:51;;;;;;;4.53;1.67;;;7.60;99.90;;;;;;4944628;28;20129;-61
2022/04/08 09:17:18;;;;;;;8.65;2.00;;;7.60;99.90;;;;;;4929318;28;20782;-61
2022/04/08 09:19:49;;;;;;;7.68;1.98;;;7.80;99.90;;;;;;4929959;28;20489;-61
2022/04/08 09:22:15;;;;;;;5.10;2.10;;;8.00;99.90;;;;;;4941990;28;20047;-60
2022/04/08 09:24:42;;;;;;;10.95;2.58;;;8.10;99.90;;;;;;4941500;28;20055;-61
2022/04/08 09:27:07;;;;;;;12.35;2.15;;;8.10;99.90;;;;;;4928328;28;20054;-61
2022/04/08 09:29:34;;;;;;;7.43;1.80;;;8.10;99.90;;;;;;4926442;28;20062;-60
2022/04/08 09:32:07;;;;;;;7.47;1.85;;;8.00;99.90;;;;;;4949137;28;20054;-61
2022/04/08 09:34:33;;;;;;;4.38;1.40;;;7.90;99.90;;;;;;4932416;28;20141;-60
2022/04/08 09:37:04;;;;;;;4.85;1.33;;;7.70;99.90;;;;;;4943260;28;20058;-61
2022/04/08 09:39:30;;;;;;;5.65;1.67;;;7.70;99.90;;;;;;4927068;28;20051;-60
2022/04/08 09:41:56;;;;;;;4.15;1.30;;;7.90;99.90;;;;;;4946437;28;20438;-60
2022/04/08 09:44:27;;;;;;;3.65;1.02;;;8.10;99.90;;;;;;4939476;28;20063;-62
2022/04/08 09:46:53;;;;;;;4.47;1.20;;;8.30;99.90;;;;;;4956038;28;20110;-61
2022/04/08 09:49:18;;;;;;;2.85;1.30;;;8.50;99.90;;;;;;4952388;28;20137;-61
2022/04/08 09:51:50;;;;;;;5.35;1.40;;;8.70;99.90;;;;;;4943577;28;20059;-61
2022/04/08 09:54:20;;;;;;;3.60;1.58;;;8.90;99.90;;;;;;4938997;28;20053;-61
2022/04/08 09:56:46;;;;;;;5.60;2.13;;;9.10;99.90;;;;;;4946299;28;20135;-62
2022/04/08 09:59:20;;;;;;;8.93;1.80;;;9.40;99.90;;;;;;4924862;28;20727;-61
2022/04/08 10:01:47;;;;;;;5.72;1.50;;;9.60;99.90;;;;;;4954928;28;20062;-62
2022/04/08 10:04:13;;;;;;;5.13;1.88;;;9.70;99.90;;;;;;4930792;28;20126;-61
2022/04/08 10:06:42;;;;;;;5.85;1.40;;;9.60;99.90;;;;;;4930974;28;20749;-61
2022/04/08 10:09:10;;;;;;;7.30;1.63;;;9.40;99.90;;;;;;4941967;28;20069;-61
2022/04/08 10:12:08;;;;;;;1.90;0.93;;;9.20;99.90;;;;;;4942915;28;20047;-61
2022/04/08 10:14:51;;;;;;;4.00;1.10;;;8.90;99.90;;;;;;4904738;28;20099;-60
2022/04/08 10:17:18;;;;;;;1.67;0.73;;;8.70;99.90;;;;;;4944327;28;20051;-61
2022/04/08 10:19:44;;;;;;;3.03;0.90;;;8.50;99.90;;;;;;4926876;28;20059;-61
2022/04/08 10:22:18;;;;;;;5.60;1.30;;;8.50;99.90;;;;;;4919120;28;20051;-62
2022/04/08 10:24:56;;;;;;;8.23;1.60;;;8.70;99.90;;;;;;4956551;28;20061;-61
2022/04/08 10:27:34;;;;;;;4.72;1.38;;;9.00;99.90;;;;;;4937447;28;20063;-62
2022/04/08 10:30:00;;;;;;;4.00;1.55;;;9.10;99.90;;;;;;4947616;28;20050;-60
2022/04/08 10:32:39;;;;;;;4.85;1.30;;;9.20;99.90;;;;;;4938208;28;20098;-60
2022/04/08 10:35:14;;;;;;;6.43;1.83;;;9.40;99.90;;;;;;4962762;28;21149;-61
2022/04/08 10:37:42;;;;;;;5.03;1.10;;;9.50;99.90;;;;;;4938181;28;20798;-61
2022/04/08 10:40:10;;;;;;;4.63;0.90;;;9.50;99.90;;;;;;4953473;28;20046;-61
2022/04/08 10:42:36;;;;;;;6.45;1.42;;;9.20;99.90;;;;;;4950495;28;20562;-61
2022/04/08 10:45:15;;;;;;;4.25;1.15;;;8.70;99.90;;;;;;4946143;28;20047;-60
2022/04/08 10:47:48;;;;;;;4.45;1.17;;;8.20;99.90;;;;;;4947963;28;20054;-61
2022/04/08 10:50:33;;;;;;;4.38;1.23;;;7.80;99.90;;;;;;4945169;28;20138;-61
2022/04/08 10:53:10;;;;;;;3.50;1.40;;;7.70;99.90;;;;;;4937230;28;20051;-61
2022/04/08 10:55:54;;;;;;;5.18;1.48;;;7.70;99.90;;;;;;4959160;28;20057;-61
2022/04/08 10:58:49;;;;;;;7.40;1.95;;;7.90;99.90;;;;;;4925673;28;20161;-61
2022/04/08 11:01:24;;;;;;;12.30;2.20;;;8.30;99.90;;;;;;4929239;28;20122;-61
2022/04/08 11:04:00;;;;;;;10.40;2.10;;;8.60;99.90;;;;;;4945916;28;20062;-61
2022/04/08 11:06:37;;;;;;;8.60;1.67;;;8.90;99.90;;;;;;4960844;28;20093;-61
2022/04/08 11:09:05;;;;;;;5.85;1.70;;;9.20;99.90;;;;;;4949254;28;20094;-62
2022/04/08 11:11:33;;;;;;;8.50;1.70;;;9.50;99.90;;;;;;4961265;28;20043;-62
2022/04/08 11:14:01;;;;;;;5.15;1.63;;;9.70;99.90;;;;;;4941408;28;20129;-61
2022/04/08 11:16:38;;;;;;;8.23;1.50;;;9.80;99.90;;;;;;4939336;28;20047;-61
2022/04/08 11:19:05;;;;;;;6.28;1.77;;;9.80;99.90;;;;;;4922171;28;20407;-60
2022/04/08 11:21:33;;;;;;;9.20;1.48;;;9.90;99.90;;;;;;4922633;28;20054;-62
2022/04/08 11:24:13;;;;;;;5.82;1.27;;;9.80;99.90;;;;;;4954730;28;20710;-61
2022/04/08 11:26:45;;;;;;;7.38;1.38;;;9.80;99.90;;;;;;4950663;28;20063;-61
2022/04/08 11:29:14;;;;;;;7.55;1.23;;;9.70;99.90;;;;;;4943842;28;20049;-61
2022/04/08 11:31:40;;;;;;;8.00;1.75;;;9.60;99.90;;;;;;4943261;28;20058;-62
2022/04/08 11:34:06;;;;;;;6.13;1.65;;;9.60;99.90;;;;;;4945797;28;20107;-61
2022/04/08 11:36:34;;;;;;;5.18;1.50;;;9.80;99.90;;;;;;4943087;28;21463;-61
2022/04/08 11:39:00;;;;;;;3.75;1.05;;;10.00;99.90;;;;;;4927314;28;20624;-62
2022/04/08 11:41:27;;;;;;;3.55;1.13;;;10.20;99.90;;;;;;4923391;28;20204;-61
2022/04/08 11:43:54;;;;;;;7.13;1.10;;;10.20;99.90;;;;;;4925491;28;20437;-62
2022/04/08 11:46:20;;;;;;;3.95;1.27;;;10.10;99.90;;;;;;4940653;28;20532;-62
2022/04/08 11:48:46;;;;;;;5.22;1.30;;;10.20;99.90;;;;;;4940180;28;20081;-62
2022/04/08 11:51:12;;;;;;;5.45;1.40;;;10.30;99.90;;;;;;4958938;28;20421;-62
2022/04/08 11:53:46;;;;;;;7.80;1.33;;;10.40;99.90;;;;;;4922425;28;21061;-61
2022/04/08 11:56:19;;;;;;;6.80;1.70;;;10.60;99.90;;;;;;4952806;28;20849;-61
2022/04/08 11:58:56;;;;;;;7.55;1.80;;;10.60;99.90;;;;;;4945504;28;20043;-61
2022/04/08 12:01:23;;;;;;;4.18;1.38;;;10.60;99.40;;;;;;4931750;28;20491;-62
2022/04/08 12:03:52;;;;;;;9.95;1.85;;;10.50;98.80;;;;;;4925500;28;20102;-61
2022/04/08 12:06:18;;;;;;;6.47;1.70;;;10.50;98.60;;;;;;4930530;28;20051;-62
2022/04/08 12:08:46;;;;;;;9.60;1.60;;;10.60;98.70;;;;;;4944874;28;20055;-61
2022/04/08 12:11:12;;;;;;;8.13;1.40;;;10.80;98.60;;;;;;4940440;28;20347;-60
2022/04/08 12:13:42;;;;;;;9.30;1.45;;;11.00;98.30;;;;;;4942732;28;20051;-61
2022/04/08 12:16:10;;;;;;;5.45;1.55;;;11.20;98.10;;;;;;4959326;28;20055;-61
2022/04/08 12:18:49;;;;;;;9.90;1.67;;;11.40;97.90;;;;;;4950560;28;20055;-61
2022/04/08 12:21:24;;;;;;;7.28;1.40;;;11.70;97.70;;;;;;4953726;28;20050;-62
2022/04/08 12:23:51;;;;;;;6.82;1.15;;;11.90;96.90;;;;;;4930230;28;20095;-61
2022/04/08 12:26:18;;;;;;;5.47;1.13;;;11.80;96.10;;;;;;4954816;28;20059;-62
2022/04/08 12:28:44;;;;;;;9.23;1.90;;;11.60;96.00;;;;;;4957140;28;20046;-61
2022/04/08 12:31:15;;;;;;;5.70;1.85;;;11.20;96.50;;;;;;4947486;28;20050;-62
2022/04/08 12:33:42;;;;;;;9.10;1.73;;;11.00;98.10;;;;;;4923217;28;20110;-61
2022/04/08 12:36:10;;;;;;;4.45;1.50;;;10.80;99.20;;;;;;4954511;28;20057;-61
2022/04/08 12:38:40;;;;;;;5.93;1.50;;;10.60;99.90;;;;;;4925758;28;20277;-62
2022/04/08 12:41:07;;;;;;;3.08;1.00;;;10.30;99.90;;;;;;4931717;28;20059;-62
2022/04/08 12:43:33;;;;;;;4.28;1.30;;;9.80;99.90;;;;;;4950250;28;20069;-62
2022/04/08 12:45:59;;;;;;;4.90;1.40;;;9.60;99.90;;;;;;4943134;28;20047;-62
2022/04/08 12:48:25;;;;;;;3.22;1.17;;;9.50;99.90;;;;;;4936915;28;20054;-62
2022/04/08 12:50:52;;;;;;;9.13;1.83;;;9.50;99.90;;;;;;4913706;28;20138;-62
2022/04/08 12:53:18;;;;;;;8.07;1.77;;;9.80;99.90;;;;;;4941705;28;20129;-62
2022/04/08 12:55:44;;;;;;;6.38;1.42;;;10.10;99.90;;;;;;4944520;28;20489;-62